Pagrindinis puslapis
METAR-TAF:

METAR-TAF

Oro uostai :

Akaba, Jordanija

platuma: 29-38N, ilguma: 035-01E, Aukštis: 53 m

Dabartinis oras

Ataskaita buvo paskelbta 37 minutes, ne 14:00 UTC
Vėjas 12 kt iš Šiaurės
Temperatūra 26°C
Drėgmė 18%
Slėgis 1013 hPa
Matomumas: 6000 m

METAR: OJAQ 291400Z 35012KT 6000 NSC 26/00 Q1013 NOSIG

Laikas: 17:37 (14:37 UTC)

Prognozė

Ataskaita buvo paskelbta 4 valandos ir 10 minutes, ne 10:27 UTC
Prognozė galioja nuo 29 metu 12 UTC su 30 metu 18 UTC
Vėjas 10 kt iš Šiaurės
Matomumas 10 km arba daugiau
nėra debesų žemiau 1500 m ir nėra kamuolinių lietaus debesų
Tikimybė 40%
nuo 29 metu 12 UTC su 29 metu 24 UTC
Matomumas: 6000 m
Tikimybė 30% :
Laikinai
nuo 29 metu 12 UTC su 29 metu 18 UTC
Vėjas 18 kt iš Šiaurės/Šiaurės Vakarų
Matomumas: 4000 m
dulkės

TAF: OJAQ 291027Z 2912/3018 35010KT CAVOK PROB40 2912/2924 6000 PROB30 TEMPO 2912/2918 34018KT 4000 DU

Orai ataskaitas ir orų prognozės (METAR, TAF).

turimą stotys yra geltonos ir raudonos taškus žemėlapyje.

Perkelti pele per norėdami pamatyti stoties vardą.

Tada spustelėkite, norėdami matyti oro stebėjimo ir prognozės.

Norėdami pakeisti žemėlapį: spustelėkite ant žalios mygtukų su juodo kryžiaus žemyn,; žalią mygtuką su brūkšneliu, jei norite nutolinti; arba žalių rodyklių gretimoms žemėlapius.


METAR-TAF: